sensor_id;sensor_type;location;lat;lon;timestamp;pressure;altitude;pressure_sealevel;temperature;humidity
64675;BME280;51090;51.512;11.332;2022-08-03T00:00:14;99459.97;;;17.95;nan
64675;BME280;51090;51.512;11.332;2022-08-03T00:02:41;99459.84;;;17.90;nan
64675;BME280;51090;51.512;11.332;2022-08-03T00:05:07;99454.59;;;17.83;nan
64675;BME280;51090;51.512;11.332;2022-08-03T00:07:33;99452.16;;;17.82;nan
64675;BME280;51090;51.512;11.332;2022-08-03T00:10:00;99451.19;;;17.76;nan
64675;BME280;51090;51.512;11.332;2022-08-03T00:12:26;99450.47;;;17.69;nan
64675;BME280;51090;51.512;11.332;2022-08-03T00:14:52;99451.53;;;17.68;nan
64675;BME280;51090;51.512;11.332;2022-08-03T00:17:18;99453.84;;;17.64;nan
64675;BME280;51090;51.512;11.332;2022-08-03T00:19:44;99454.31;;;17.61;nan
64675;BME280;51090;51.512;11.332;2022-08-03T00:22:10;99448.59;;;17.58;nan
64675;BME280;51090;51.512;11.332;2022-08-03T00:24:36;99443.22;;;17.58;nan
64675;BME280;51090;51.512;11.332;2022-08-03T00:27:02;99445.66;;;17.59;nan
64675;BME280;51090;51.512;11.332;2022-08-03T00:29:28;99449.41;;;17.58;nan
64675;BME280;51090;51.512;11.332;2022-08-03T00:31:54;99445.91;;;17.58;nan
64675;BME280;51090;51.512;11.332;2022-08-03T00:34:20;99449.41;;;17.58;nan
64675;BME280;51090;51.512;11.332;2022-08-03T00:36:46;99449.06;;;17.55;nan
64675;BME280;51090;51.512;11.332;2022-08-03T00:39:12;99453.00;;;17.52;nan
64675;BME280;51090;51.512;11.332;2022-08-03T00:41:38;99448.56;;;17.46;nan
64675;BME280;51090;51.512;11.332;2022-08-03T00:44:04;99445.28;;;17.44;nan
64675;BME280;51090;51.512;11.332;2022-08-03T00:46:30;99444.25;;;17.45;nan
64675;BME280;51090;51.512;11.332;2022-08-03T00:48:56;99441.78;;;17.44;nan
64675;BME280;51090;51.512;11.332;2022-08-03T00:51:23;99449.22;;;17.41;nan
64675;BME280;51090;51.512;11.332;2022-08-03T00:53:50;99446.41;;;17.36;nan
64675;BME280;51090;51.512;11.332;2022-08-03T00:56:17;99447.56;;;17.29;nan
64675;BME280;51090;51.512;11.332;2022-08-03T00:58:44;99449.09;;;17.25;nan
64675;BME280;51090;51.512;11.332;2022-08-03T01:01:11;99446.63;;;17.23;nan
64675;BME280;51090;51.512;11.332;2022-08-03T01:03:37;99442.78;;;17.19;nan
64675;BME280;51090;51.512;11.332;2022-08-03T01:06:16;99439.72;;;17.15;nan
64675;BME280;51090;51.512;11.332;2022-08-03T01:11:49;99431.53;;;17.10;nan
64675;BME280;51090;51.512;11.332;2022-08-03T01:14:23;99434.09;;;17.05;nan
64675;BME280;51090;51.512;11.332;2022-08-03T01:16:58;99435.00;;;16.99;nan
64675;BME280;51090;51.512;11.332;2022-08-03T01:19:53;99439.56;;;16.98;nan
64675;BME280;51090;51.512;11.332;2022-08-03T01:22:34;99431.53;;;16.98;nan
64675;BME280;51090;51.512;11.332;2022-08-03T01:25:23;99432.78;;;16.96;nan
64675;BME280;51090;51.512;11.332;2022-08-03T01:28:28;99431.59;;;16.92;nan
64675;BME280;51090;51.512;11.332;2022-08-03T01:31:03;99427.75;;;16.88;nan
64675;BME280;51090;51.512;11.332;2022-08-03T01:33:36;99424.03;;;16.89;nan
64675;BME280;51090;51.512;11.332;2022-08-03T01:36:12;99426.47;;;16.90;nan
64675;BME280;51090;51.512;11.332;2022-08-03T01:38:43;99425.44;;;16.91;nan
64675;BME280;51090;51.512;11.332;2022-08-03T01:41:13;99419.78;;;16.81;nan
64675;BME280;51090;51.512;11.332;2022-08-03T01:43:42;99420.88;;;16.73;nan
64675;BME280;51090;51.512;11.332;2022-08-03T01:46:11;99422.59;;;16.68;nan
64675;BME280;51090;51.512;11.332;2022-08-03T01:48:39;99423.41;;;16.68;nan
64675;BME280;51090;51.512;11.332;2022-08-03T01:51:08;99424.69;;;16.66;nan
64675;BME280;51090;51.512;11.332;2022-08-03T01:53:36;99425.50;;;16.66;nan
64675;BME280;51090;51.512;11.332;2022-08-03T01:56:05;99429.00;;;16.67;nan
64675;BME280;51090;51.512;11.332;2022-08-03T01:58:35;99424.69;;;16.66;nan
64675;BME280;51090;51.512;11.332;2022-08-03T02:01:02;99430.84;;;16.66;nan
64675;BME280;51090;51.512;11.332;2022-08-03T02:03:33;99428.41;;;16.65;nan
64675;BME280;51090;51.512;11.332;2022-08-03T02:06:02;99429.44;;;16.64;nan
64675;BME280;51090;51.512;11.332;2022-08-03T02:08:28;99435.59;;;16.64;nan
64675;BME280;51090;51.512;11.332;2022-08-03T02:10:56;99432.94;;;16.64;nan
64675;BME280;51090;51.512;11.332;2022-08-03T02:13:24;99435.25;;;16.61;nan
64675;BME280;51090;51.512;11.332;2022-08-03T02:15:52;99439.41;;;16.57;nan
64675;BME280;51090;51.512;11.332;2022-08-03T02:18:20;99436.38;;;16.53;nan
64675;BME280;51090;51.512;11.332;2022-08-03T02:20:48;99435.41;;;16.47;nan
64675;BME280;51090;51.512;11.332;2022-08-03T02:23:15;99439.41;;;16.38;nan
64675;BME280;51090;51.512;11.332;2022-08-03T02:25:44;99438.00;;;16.36;nan
64675;BME280;51090;51.512;11.332;2022-08-03T02:28:16;99437.03;;;16.30;nan
64675;BME280;51090;51.512;11.332;2022-08-03T02:30:46;99431.53;;;16.25;nan
64675;BME280;51090;51.512;11.332;2022-08-03T02:33:16;99432.84;;;16.16;nan
64675;BME280;51090;51.512;11.332;2022-08-03T02:35:46;99435.75;;;16.14;nan
64675;BME280;51090;51.512;11.332;2022-08-03T02:38:14;99427.50;;;16.16;nan
64675;BME280;51090;51.512;11.332;2022-08-03T02:40:44;99427.94;;;16.13;nan
64675;BME280;51090;51.512;11.332;2022-08-03T02:43:16;99423.19;;;16.15;nan
64675;BME280;51090;51.512;11.332;2022-08-03T02:45:46;99415.38;;;16.13;nan
64675;BME280;51090;51.512;11.332;2022-08-03T02:48:22;99420.16;;;16.11;nan
64675;BME280;51090;51.512;11.332;2022-08-03T02:50:52;99425.34;;;16.06;nan
64675;BME280;51090;51.512;11.332;2022-08-03T02:53:20;99415.22;;;16.08;nan
64675;BME280;51090;51.512;11.332;2022-08-03T02:55:47;99407.00;;;16.09;nan
64675;BME280;51090;51.512;11.332;2022-08-03T02:58:17;99419.31;;;16.10;nan
64675;BME280;51090;51.512;11.332;2022-08-03T03:00:44;99407.66;;;16.05;nan
64675;BME280;51090;51.512;11.332;2022-08-03T03:03:11;99426.63;;;16.03;nan
64675;BME280;51090;51.512;11.332;2022-08-03T03:05:39;99419.44;;;15.97;nan
64675;BME280;51090;51.512;11.332;2022-08-03T03:08:06;99425.03;;;15.96;nan
64675;BME280;51090;51.512;11.332;2022-08-03T03:10:33;99417.22;;;15.94;nan
64675;BME280;51090;51.512;11.332;2022-08-03T03:13:01;99421.38;;;15.90;nan
64675;BME280;51090;51.512;11.332;2022-08-03T03:15:28;99421.19;;;15.85;nan
64675;BME280;51090;51.512;11.332;2022-08-03T03:17:55;99416.53;;;15.80;nan
64675;BME280;51090;51.512;11.332;2022-08-03T03:20:23;99413.25;;;15.78;nan
64675;BME280;51090;51.512;11.332;2022-08-03T03:22:51;99418.22;;;15.75;nan
64675;BME280;51090;51.512;11.332;2022-08-03T03:25:17;99411.88;;;15.69;nan
64675;BME280;51090;51.512;11.332;2022-08-03T03:27:44;99415.56;;;15.68;nan
64675;BME280;51090;51.512;11.332;2022-08-03T03:30:10;99412.09;;;15.67;nan
64675;BME280;51090;51.512;11.332;2022-08-03T03:32:37;99414.97;;;15.66;nan
64675;BME280;51090;51.512;11.332;2022-08-03T03:35:05;99415.63;;;15.61;nan
64675;BME280;51090;51.512;11.332;2022-08-03T03:37:31;99414.19;;;15.59;nan
64675;BME280;51090;51.512;11.332;2022-08-03T03:39:57;99411.75;;;15.57;nan
64675;BME280;51090;51.512;11.332;2022-08-03T03:42:24;99417.09;;;15.57;nan
64675;BME280;51090;51.512;11.332;2022-08-03T03:44:51;99417.72;;;15.59;nan
64675;BME280;51090;51.512;11.332;2022-08-03T03:47:17;99410.50;;;15.60;nan
64675;BME280;51090;51.512;11.332;2022-08-03T03:49:43;99413.56;;;15.63;nan
64675;BME280;51090;51.512;11.332;2022-08-03T03:52:10;99412.53;;;15.64;nan
64675;BME280;51090;51.512;11.332;2022-08-03T03:54:43;99416.22;;;15.63;nan
64675;BME280;51090;51.512;11.332;2022-08-03T03:57:10;99414.81;;;15.61;nan
64675;BME280;51090;51.512;11.332;2022-08-03T03:59:43;99412.63;;;15.51;nan
64675;BME280;51090;51.512;11.332;2022-08-03T04:02:10;99416.78;;;15.47;nan
64675;BME280;51090;51.512;11.332;2022-08-03T04:04:37;99411.44;;;15.47;nan
64675;BME280;51090;51.512;11.332;2022-08-03T04:07:26;99419.44;;;15.47;nan
64675;BME280;51090;51.512;11.332;2022-08-03T04:10:19;99409.38;;;15.49;nan
64675;BME280;51090;51.512;11.332;2022-08-03T04:13:07;99422.72;;;15.49;nan
64675;BME280;51090;51.512;11.332;2022-08-03T04:15:36;99413.84;;;15.55;nan
64675;BME280;51090;51.512;11.332;2022-08-03T04:18:03;99418.72;;;15.58;nan
64675;BME280;51090;51.512;11.332;2022-08-03T04:20:32;99422.44;;;15.57;nan
64675;BME280;51090;51.512;11.332;2022-08-03T04:23:00;99429.22;;;15.60;nan
64675;BME280;51090;51.512;11.332;2022-08-03T04:25:29;99421.56;;;15.63;nan
64675;BME280;51090;51.512;11.332;2022-08-03T04:27:58;99434.94;;;15.70;nan
64675;BME280;51090;51.512;11.332;2022-08-03T04:30:29;99434.69;;;15.72;nan
64675;BME280;51090;51.512;11.332;2022-08-03T04:32:57;99427.28;;;15.74;nan
64675;BME280;51090;51.512;11.332;2022-08-03T04:35:30;99430.75;;;15.74;nan
64675;BME280;51090;51.512;11.332;2022-08-03T04:38:01;99443.75;;;15.71;nan
64675;BME280;51090;51.512;11.332;2022-08-03T04:40:33;99440.69;;;15.67;nan
64675;BME280;51090;51.512;11.332;2022-08-03T04:42:59;99442.50;;;15.66;nan
64675;BME280;51090;51.512;11.332;2022-08-03T04:45:27;99438.22;;;15.65;nan
64675;BME280;51090;51.512;11.332;2022-08-03T04:47:54;99433.28;;;15.69;nan
64675;BME280;51090;51.512;11.332;2022-08-03T04:50:21;99436.34;;;15.73;nan
64675;BME280;51090;51.512;11.332;2022-08-03T04:52:48;99434.03;;;15.76;nan
64675;BME280;51090;51.512;11.332;2022-08-03T04:55:27;99437.94;;;15.80;nan
64675;BME280;51090;51.512;11.332;2022-08-03T04:57:53;99443.00;;;15.88;nan
64675;BME280;51090;51.512;11.332;2022-08-03T05:00:19;99443.53;;;15.97;nan
64675;BME280;51090;51.512;11.332;2022-08-03T05:02:46;99438.13;;;16.04;nan
64675;BME280;51090;51.512;11.332;2022-08-03T05:05:12;99442.56;;;16.10;nan
64675;BME280;51090;51.512;11.332;2022-08-03T05:07:38;99441.72;;;16.16;nan
64675;BME280;51090;51.512;11.332;2022-08-03T05:10:06;99442.84;;;16.27;nan
64675;BME280;51090;51.512;11.332;2022-08-03T05:12:33;99443.50;;;16.41;nan
64675;BME280;51090;51.512;11.332;2022-08-03T05:14:59;99446.28;;;16.52;nan
64675;BME280;51090;51.512;11.332;2022-08-03T05:17:25;99449.59;;;16.66;nan
64675;BME280;51090;51.512;11.332;2022-08-03T05:19:51;99448.44;;;16.81;nan
64675;BME280;51090;51.512;11.332;2022-08-03T05:22:18;99445.38;;;16.95;nan
64675;BME280;51090;51.512;11.332;2022-08-03T05:24:45;99441.44;;;17.10;nan
64675;BME280;51090;51.512;11.332;2022-08-03T05:27:11;99443.34;;;17.21;nan
64675;BME280;51090;51.512;11.332;2022-08-03T05:29:42;99445.03;;;17.34;nan
64675;BME280;51090;51.512;11.332;2022-08-03T05:32:08;99433.06;;;17.48;nan
64675;BME280;51090;51.512;11.332;2022-08-03T05:34:35;99438.00;;;17.63;nan
64675;BME280;51090;51.512;11.332;2022-08-03T05:37:01;99443.13;;;17.76;nan
64675;BME280;51090;51.512;11.332;2022-08-03T05:39:27;99444.34;;;17.92;nan
64675;BME280;51090;51.512;11.332;2022-08-03T05:41:53;99445.97;;;18.05;nan
64675;BME280;51090;51.512;11.332;2022-08-03T05:44:19;99442.50;;;18.16;nan
64675;BME280;51090;51.512;11.332;2022-08-03T05:46:45;99439.56;;;18.30;nan
64675;BME280;51090;51.512;11.332;2022-08-03T05:49:11;99439.03;;;18.44;nan
64675;BME280;51090;51.512;11.332;2022-08-03T05:51:37;99443.94;;;18.59;nan
64675;BME280;51090;51.512;11.332;2022-08-03T05:54:03;99442.84;;;18.72;nan
64675;BME280;51090;51.512;11.332;2022-08-03T05:56:29;99441.78;;;18.85;nan
64675;BME280;51090;51.512;11.332;2022-08-03T05:58:55;99436.38;;;18.97;nan
64675;BME280;51090;51.512;11.332;2022-08-03T06:01:21;99442.84;;;19.12;nan
64675;BME280;51090;51.512;11.332;2022-08-03T06:03:48;99429.59;;;19.23;nan
64675;BME280;51090;51.512;11.332;2022-08-03T06:06:15;99438.03;;;19.43;nan
64675;BME280;51090;51.512;11.332;2022-08-03T06:08:42;99440.97;;;19.58;nan
64675;BME280;51090;51.512;11.332;2022-08-03T06:11:09;99440.09;;;19.70;nan
64675;BME280;51090;51.512;11.332;2022-08-03T06:13:35;99445.66;;;19.80;nan
64675;BME280;51090;51.512;11.332;2022-08-03T06:16:01;99441.00;;;19.92;nan
64675;BME280;51090;51.512;11.332;2022-08-03T06:18:27;99439.53;;;20.01;nan
64675;BME280;51090;51.512;11.332;2022-08-03T06:20:53;99437.53;;;20.14;nan
64675;BME280;51090;51.512;11.332;2022-08-03T06:23:25;99443.91;;;20.25;nan
64675;BME280;51090;51.512;11.332;2022-08-03T06:25:51;99441.66;;;20.38;nan
64675;BME280;51090;51.512;11.332;2022-08-03T06:28:17;99436.97;;;20.51;nan
64675;BME280;51090;51.512;11.332;2022-08-03T06:30:44;99437.94;;;20.61;nan
64675;BME280;51090;51.512;11.332;2022-08-03T06:33:10;99446.97;;;20.72;nan
64675;BME280;51090;51.512;11.332;2022-08-03T06:35:37;99438.38;;;20.75;nan
64675;BME280;51090;51.512;11.332;2022-08-03T06:38:03;99449.66;;;20.94;nan
64675;BME280;51090;51.512;11.332;2022-08-03T06:40:29;99439.22;;;21.03;nan
64675;BME280;51090;51.512;11.332;2022-08-03T06:43:01;99447.66;;;21.12;nan
64675;BME280;51090;51.512;11.332;2022-08-03T06:45:27;99454.00;;;21.22;nan
64675;BME280;51090;51.512;11.332;2022-08-03T06:48:02;99448.16;;;21.30;nan
64675;BME280;51090;51.512;11.332;2022-08-03T06:50:29;99452.84;;;21.40;nan
64675;BME280;51090;51.512;11.332;2022-08-03T06:52:55;99457.78;;;21.48;nan
64675;BME280;51090;51.512;11.332;2022-08-03T06:55:23;99457.56;;;21.55;nan
64675;BME280;51090;51.512;11.332;2022-08-03T06:57:49;99450.63;;;21.64;nan
64675;BME280;51090;51.512;11.332;2022-08-03T07:00:15;99454.75;;;21.72;nan
64675;BME280;51090;51.512;11.332;2022-08-03T07:02:41;99458.34;;;21.83;nan
64675;BME280;51090;51.512;11.332;2022-08-03T07:05:09;99458.13;;;21.89;nan
64675;BME280;51090;51.512;11.332;2022-08-03T07:07:35;99455.75;;;21.98;nan
64675;BME280;51090;51.512;11.332;2022-08-03T07:10:02;99458.25;;;22.10;nan
64675;BME280;51090;51.512;11.332;2022-08-03T07:12:29;99455.66;;;22.20;nan
64675;BME280;51090;51.512;11.332;2022-08-03T07:14:57;99454.34;;;22.28;nan
64675;BME280;51090;51.512;11.332;2022-08-03T07:17:23;99452.53;;;22.38;nan
64675;BME280;51090;51.512;11.332;2022-08-03T07:19:49;99455.28;;;22.49;nan
64675;BME280;51090;51.512;11.332;2022-08-03T07:22:16;99446.41;;;22.58;nan
64675;BME280;51090;51.512;11.332;2022-08-03T07:24:42;99448.84;;;22.65;nan
64675;BME280;51090;51.512;11.332;2022-08-03T07:27:08;99441.31;;;22.72;nan
64675;BME280;51090;51.512;11.332;2022-08-03T07:29:35;99439.75;;;22.81;nan
64675;BME280;51090;51.512;11.332;2022-08-03T07:32:02;99437.88;;;22.92;nan
64675;BME280;51090;51.512;11.332;2022-08-03T07:34:29;99436.59;;;23.05;nan
64675;BME280;51090;51.512;11.332;2022-08-03T07:36:56;99438.78;;;23.18;nan
64675;BME280;51090;51.512;11.332;2022-08-03T07:39:22;99435.84;;;23.30;nan
64675;BME280;51090;51.512;11.332;2022-08-03T07:41:48;99434.75;;;23.41;nan
64675;BME280;51090;51.512;11.332;2022-08-03T07:44:17;99438.00;;;23.54;nan
64675;BME280;51090;51.512;11.332;2022-08-03T07:46:43;99440.16;;;23.67;nan
64675;BME280;51090;51.512;11.332;2022-08-03T07:49:09;99445.06;;;23.75;nan
64675;BME280;51090;51.512;11.332;2022-08-03T07:51:36;99441.56;;;23.85;nan
64675;BME280;51090;51.512;11.332;2022-08-03T07:54:02;99439.38;;;23.97;nan
64675;BME280;51090;51.512;11.332;2022-08-03T07:56:28;99439.88;;;24.09;nan
64675;BME280;51090;51.512;11.332;2022-08-03T07:58:54;99436.06;;;24.21;nan
64675;BME280;51090;51.512;11.332;2022-08-03T08:01:20;99435.25;;;24.30;nan
64675;BME280;51090;51.512;11.332;2022-08-03T08:03:48;99436.03;;;24.36;nan
64675;BME280;51090;51.512;11.332;2022-08-03T08:06:14;99433.00;;;24.43;nan
64675;BME280;51090;51.512;11.332;2022-08-03T08:08:41;99432.50;;;24.51;nan
64675;BME280;51090;51.512;11.332;2022-08-03T08:11:07;99436.25;;;24.60;nan
64675;BME280;51090;51.512;11.332;2022-08-03T08:13:33;99437.31;;;24.64;nan
64675;BME280;51090;51.512;11.332;2022-08-03T08:15:59;99438.09;;;24.70;nan
64675;BME280;51090;51.512;11.332;2022-08-03T08:18:26;99436.97;;;24.76;nan
64675;BME280;51090;51.512;11.332;2022-08-03T08:20:54;99433.72;;;24.84;nan
64675;BME280;51090;51.512;11.332;2022-08-03T08:23:21;99431.78;;;24.90;nan
64675;BME280;51090;51.512;11.332;2022-08-03T08:25:50;99436.06;;;24.96;nan
64675;BME280;51090;51.512;11.332;2022-08-03T08:28:21;99428.44;;;25.03;nan
64675;BME280;51090;51.512;11.332;2022-08-03T08:30:48;99432.69;;;25.14;nan
64675;BME280;51090;51.512;11.332;2022-08-03T08:33:14;99431.31;;;25.22;nan
64675;BME280;51090;51.512;11.332;2022-08-03T08:35:40;99431.25;;;25.32;nan
64675;BME280;51090;51.512;11.332;2022-08-03T08:38:06;99433.13;;;25.37;nan
64675;BME280;51090;51.512;11.332;2022-08-03T08:40:32;99436.34;;;25.44;nan
64675;BME280;51090;51.512;11.332;2022-08-03T08:42:58;99441.44;;;25.51;nan
64675;BME280;51090;51.512;11.332;2022-08-03T08:45:25;99438.97;;;25.54;nan
64675;BME280;51090;51.512;11.332;2022-08-03T08:47:51;99434.31;;;25.60;nan
64675;BME280;51090;51.512;11.332;2022-08-03T08:50:20;99438.59;;;25.66;nan
64675;BME280;51090;51.512;11.332;2022-08-03T08:52:48;99438.81;;;25.75;nan
64675;BME280;51090;51.512;11.332;2022-08-03T08:55:20;99435.50;;;25.78;nan
64675;BME280;51090;51.512;11.332;2022-08-03T09:00:14;99441.38;;;25.95;nan
64675;BME280;51090;51.512;11.332;2022-08-03T09:02:42;99434.56;;;25.98;nan
64675;BME280;51090;51.512;11.332;2022-08-03T09:05:14;99430.41;;;26.05;nan
64675;BME280;51090;51.512;11.332;2022-08-03T09:07:41;99435.47;;;26.12;nan
64675;BME280;51090;51.512;11.332;2022-08-03T09:10:09;99430.25;;;26.21;nan
64675;BME280;51090;51.512;11.332;2022-08-03T09:12:43;99431.78;;;26.27;nan
64675;BME280;51090;51.512;11.332;2022-08-03T09:15:21;99427.41;;;26.31;nan
64675;BME280;51090;51.512;11.332;2022-08-03T09:17:48;99425.66;;;26.40;nan
64675;BME280;51090;51.512;11.332;2022-08-03T09:20:14;99423.69;;;26.46;nan
64675;BME280;51090;51.512;11.332;2022-08-03T09:23:04;99421.81;;;26.46;nan
64675;BME280;51090;51.512;11.332;2022-08-03T09:25:35;99419.56;;;26.48;nan
64675;BME280;51090;51.512;11.332;2022-08-03T09:28:10;99408.09;;;26.57;nan
64675;BME280;51090;51.512;11.332;2022-08-03T09:30:39;99406.94;;;26.63;nan
64675;BME280;51090;51.512;11.332;2022-08-03T09:33:13;99404.66;;;26.70;nan
64675;BME280;51090;51.512;11.332;2022-08-03T09:35:46;99405.63;;;26.79;nan
64675;BME280;51090;51.512;11.332;2022-08-03T09:38:23;99409.97;;;26.80;nan
64675;BME280;51090;51.512;11.332;2022-08-03T09:40:51;99409.03;;;26.90;nan
64675;BME280;51090;51.512;11.332;2022-08-03T09:43:18;99409.97;;;26.99;nan
64675;BME280;51090;51.512;11.332;2022-08-03T09:45:45;99406.28;;;27.09;nan
64675;BME280;51090;51.512;11.332;2022-08-03T09:48:26;99400.19;;;27.17;nan
64675;BME280;51090;51.512;11.332;2022-08-03T09:50:54;99399.53;;;27.25;nan
64675;BME280;51090;51.512;11.332;2022-08-03T09:53:21;99404.03;;;27.35;nan
64675;BME280;51090;51.512;11.332;2022-08-03T09:55:53;99398.72;;;27.44;nan
64675;BME280;51090;51.512;11.332;2022-08-03T09:58:20;99392.59;;;27.52;nan
64675;BME280;51090;51.512;11.332;2022-08-03T10:00:55;99393.81;;;27.60;nan
64675;BME280;51090;51.512;11.332;2022-08-03T10:03:22;99389.47;;;27.58;nan
64675;BME280;51090;51.512;11.332;2022-08-03T10:05:48;99386.44;;;27.60;nan
64675;BME280;51090;51.512;11.332;2022-08-03T10:08:15;99389.59;;;27.67;nan
64675;BME280;51090;51.512;11.332;2022-08-03T10:10:43;99385.16;;;27.71;nan
64675;BME280;51090;51.512;11.332;2022-08-03T10:13:18;99376.69;;;27.73;nan
64675;BME280;51090;51.512;11.332;2022-08-03T10:15:45;99381.25;;;27.77;nan
64675;BME280;51090;51.512;11.332;2022-08-03T10:18:11;99377.63;;;27.82;nan
64675;BME280;51090;51.512;11.332;2022-08-03T10:20:54;99381.91;;;27.88;nan
64675;BME280;51090;51.512;11.332;2022-08-03T10:23:20;99372.81;;;27.93;nan
64675;BME280;51090;51.512;11.332;2022-08-03T10:25:51;99379.78;;;27.99;nan
64675;BME280;51090;51.512;11.332;2022-08-03T10:28:18;99372.81;;;28.07;nan
64675;BME280;51090;51.512;11.332;2022-08-03T10:30:48;99369.19;;;28.11;nan
64675;BME280;51090;51.512;11.332;2022-08-03T10:33:23;99361.53;;;28.13;nan
64675;BME280;51090;51.512;11.332;2022-08-03T10:35:55;99364.97;;;28.19;nan
64675;BME280;51090;51.512;11.332;2022-08-03T10:38:28;99366.78;;;28.23;nan
64675;BME280;51090;51.512;11.332;2022-08-03T10:40:58;99369.59;;;28.32;nan
64675;BME280;51090;51.512;11.332;2022-08-03T10:43:32;99366.94;;;28.41;nan
64675;BME280;51090;51.512;11.332;2022-08-03T10:45:59;99360.81;;;28.49;nan
64675;BME280;51090;51.512;11.332;2022-08-03T10:48:28;99359.28;;;28.57;nan
64675;BME280;51090;51.512;11.332;2022-08-03T10:50:55;99350.69;;;28.63;nan
64675;BME280;51090;51.512;11.332;2022-08-03T10:53:35;99352.50;;;28.68;nan
64675;BME280;51090;51.512;11.332;2022-08-03T10:56:02;99355.59;;;28.75;nan
64675;BME280;51090;51.512;11.332;2022-08-03T10:58:48;99350.34;;;28.79;nan
64675;BME280;51090;51.512;11.332;2022-08-03T11:01:15;99350.84;;;28.81;nan
64675;BME280;51090;51.512;11.332;2022-08-03T11:08:47;99348.38;;;28.93;nan
64675;BME280;51090;51.512;11.332;2022-08-03T11:14:03;99351.09;;;28.93;nan
64675;BME280;51090;51.512;11.332;2022-08-03T11:16:32;99342.78;;;28.98;nan
64675;BME280;51090;51.512;11.332;2022-08-03T11:19:07;99344.56;;;29.03;nan
64675;BME280;51090;51.512;11.332;2022-08-03T11:27:26;99355.59;;;29.12;nan
64675;BME280;51090;51.512;11.332;2022-08-03T11:40:44;99342.25;;;29.33;nan
64675;BME280;51090;51.512;11.332;2022-08-03T11:48:37;99338.69;;;29.55;nan
64675;BME280;51090;51.512;11.332;2022-08-03T11:51:23;99332.13;;;29.64;nan
64675;BME280;51090;51.512;11.332;2022-08-03T11:53:59;99330.66;;;29.81;nan
64675;BME280;51090;51.512;11.332;2022-08-03T11:56:27;99326.00;;;29.90;nan
64675;BME280;51090;51.512;11.332;2022-08-03T11:58:55;99326.69;;;29.95;nan
64675;BME280;51090;51.512;11.332;2022-08-03T12:01:23;99330.09;;;30.10;nan
64675;BME280;51090;51.512;11.332;2022-08-03T12:03:50;99332.72;;;30.24;nan
64675;BME280;51090;51.512;11.332;2022-08-03T12:06:17;99331.16;;;30.31;nan
64675;BME280;51090;51.512;11.332;2022-08-03T12:08:44;99321.69;;;30.37;nan
64675;BME280;51090;51.512;11.332;2022-08-03T12:11:13;99327.31;;;30.41;nan
64675;BME280;51090;51.512;11.332;2022-08-03T12:13:48;99320.53;;;30.38;nan
64675;BME280;51090;51.512;11.332;2022-08-03T12:16:23;99316.22;;;30.37;nan
64675;BME280;51090;51.512;11.332;2022-08-03T12:19:00;99319.75;;;30.38;nan
64675;BME280;51090;51.512;11.332;2022-08-03T12:21:28;99305.75;;;30.40;nan
64675;BME280;51090;51.512;11.332;2022-08-03T12:23:59;99315.41;;;30.37;nan
64675;BME280;51090;51.512;11.332;2022-08-03T12:26:31;99310.09;;;30.41;nan
64675;BME280;51090;51.512;11.332;2022-08-03T12:29:07;99303.97;;;30.44;nan
64675;BME280;51090;51.512;11.332;2022-08-03T12:31:34;99304.81;;;30.53;nan
64675;BME280;51090;51.512;11.332;2022-08-03T12:34:04;99299.31;;;30.53;nan
64675;BME280;51090;51.512;11.332;2022-08-03T12:36:34;99301.25;;;30.52;nan
64675;BME280;51090;51.512;11.332;2022-08-03T12:39:05;99296.09;;;30.51;nan
64675;BME280;51090;51.512;11.332;2022-08-03T12:41:36;99298.69;;;30.56;nan
64675;BME280;51090;51.512;11.332;2022-08-03T12:44:08;99299.47;;;30.56;nan
64675;BME280;51090;51.512;11.332;2022-08-03T12:46:39;99294.19;;;30.60;nan
64675;BME280;51090;51.512;11.332;2022-08-03T12:49:13;99288.38;;;30.62;nan
64675;BME280;51090;51.512;11.332;2022-08-03T12:54:20;99294.50;;;30.76;nan
64675;BME280;51090;51.512;11.332;2022-08-03T12:57:05;99295.31;;;30.85;nan
64675;BME280;51090;51.512;11.332;2022-08-03T12:59:38;99291.13;;;30.88;nan
64675;BME280;51090;51.512;11.332;2022-08-03T13:02:20;99290.97;;;30.84;nan
64675;BME280;51090;51.512;11.332;2022-08-03T13:04:48;99284.72;;;30.84;nan
64675;BME280;51090;51.512;11.332;2022-08-03T13:07:16;99283.69;;;30.79;nan
64675;BME280;51090;51.512;11.332;2022-08-03T13:09:54;99281.75;;;30.80;nan
64675;BME280;51090;51.512;11.332;2022-08-03T13:12:25;99273.59;;;30.89;nan
64675;BME280;51090;51.512;11.332;2022-08-03T13:14:57;99283.06;;;31.00;nan
64675;BME280;51090;51.512;11.332;2022-08-03T13:17:23;99278.22;;;31.06;nan
64675;BME280;51090;51.512;11.332;2022-08-03T13:19:50;99280.00;;;31.10;nan
64675;BME280;51090;51.512;11.332;2022-08-03T13:22:19;99278.69;;;31.08;nan
64675;BME280;51090;51.512;11.332;2022-08-03T13:24:48;99268.53;;;31.08;nan
64675;BME280;51090;51.512;11.332;2022-08-03T13:27:15;99278.41;;;31.09;nan
64675;BME280;51090;51.512;11.332;2022-08-03T13:29:41;99278.88;;;31.11;nan
64675;BME280;51090;51.512;11.332;2022-08-03T13:32:08;99274.69;;;31.14;nan
64675;BME280;51090;51.512;11.332;2022-08-03T13:34:35;99263.56;;;31.19;nan
64675;BME280;51090;51.512;11.332;2022-08-03T13:37:01;99263.69;;;31.22;nan
64675;BME280;51090;51.512;11.332;2022-08-03T13:39:28;99272.88;;;31.18;nan
64675;BME280;51090;51.512;11.332;2022-08-03T13:41:54;99266.59;;;31.17;nan
64675;BME280;51090;51.512;11.332;2022-08-03T13:44:20;99264.34;;;31.19;nan
64675;BME280;51090;51.512;11.332;2022-08-03T13:46:46;99270.13;;;31.27;nan
64675;BME280;51090;51.512;11.332;2022-08-03T13:49:13;99264.19;;;31.24;nan
64675;BME280;51090;51.512;11.332;2022-08-03T13:51:39;99260.28;;;31.25;nan
64675;BME280;51090;51.512;11.332;2022-08-03T13:54:06;99259.63;;;31.29;nan
64675;BME280;51090;51.512;11.332;2022-08-03T13:56:32;99255.59;;;31.35;nan